createdAt,value
2022-12-24T00:00:17.063Z,4.40
2022-12-24T00:02:44.010Z,4.57
2022-12-24T00:05:13.749Z,3.73
2022-12-24T00:07:40.725Z,5.17
2022-12-24T00:10:08.383Z,5.00
2022-12-24T00:12:39.421Z,3.83
2022-12-24T00:15:10.523Z,3.47
2022-12-24T00:17:39.392Z,3.80
2022-12-24T00:20:07.169Z,4.30
2022-12-24T00:22:33.931Z,4.47
2022-12-24T00:25:00.759Z,3.90
2022-12-24T00:27:27.648Z,3.53
2022-12-24T00:29:54.457Z,4.37
2022-12-24T00:32:21.340Z,4.77
2022-12-24T00:34:48.220Z,3.90
2022-12-24T00:37:15.080Z,4.00
2022-12-24T00:39:42.062Z,3.83
2022-12-24T00:42:08.891Z,3.33
2022-12-24T00:44:35.810Z,4.53
2022-12-24T00:47:05.499Z,4.30
2022-12-24T00:49:36.947Z,4.27
2022-12-24T00:52:03.925Z,4.00
2022-12-24T00:54:30.851Z,4.17
2022-12-24T00:56:57.773Z,3.60
2022-12-24T00:59:24.639Z,3.60
2022-12-24T01:01:51.607Z,4.27
2022-12-24T01:04:37.096Z,3.80
2022-12-24T01:07:04.077Z,3.93
2022-12-24T01:09:31.052Z,3.47
2022-12-24T01:11:57.876Z,4.20
2022-12-24T01:14:24.743Z,3.57
2022-12-24T01:16:51.577Z,4.03
2022-12-24T01:19:18.337Z,3.60
2022-12-24T01:21:45.192Z,6.00
2022-12-24T01:24:15.939Z,3.50
2022-12-24T01:26:43.829Z,5.20
2022-12-24T01:29:10.695Z,3.97
2022-12-24T01:31:37.869Z,4.73
2022-12-24T01:34:07.094Z,3.40
2022-12-24T01:36:34.021Z,4.27
2022-12-24T01:39:00.819Z,4.60
2022-12-24T01:41:46.222Z,3.53
2022-12-24T01:44:37.114Z,4.27
2022-12-24T01:47:09.418Z,4.20
2022-12-24T01:49:38.151Z,4.30
2022-12-24T01:52:12.645Z,4.97
2022-12-24T01:54:54.995Z,4.57
2022-12-24T01:57:31.646Z,4.43
2022-12-24T02:00:04.507Z,4.50
2022-12-24T02:02:33.458Z,5.00
2022-12-24T02:05:10.440Z,4.20
2022-12-24T02:07:39.922Z,4.97
2022-12-24T02:10:11.414Z,6.03
2022-12-24T02:12:40.033Z,5.93
2022-12-24T02:15:09.359Z,4.50
2022-12-24T02:17:54.663Z,5.03
2022-12-24T02:20:57.709Z,5.90
2022-12-24T02:23:30.487Z,4.20
2022-12-24T02:25:57.253Z,3.90
2022-12-24T02:28:48.560Z,4.90
2022-12-24T02:31:24.658Z,4.67
2022-12-24T02:34:04.543Z,4.30
2022-12-24T02:36:36.587Z,4.83
2022-12-24T02:39:10.292Z,3.87
2022-12-24T02:42:01.516Z,5.70
2022-12-24T02:44:31.360Z,5.30
2022-12-24T02:47:00.380Z,4.70
2022-12-24T02:49:27.386Z,5.00
2022-12-24T02:51:54.188Z,3.80
2022-12-24T02:54:21.143Z,4.27
2022-12-24T02:57:14.009Z,3.67
2022-12-24T03:00:02.713Z,4.57
2022-12-24T03:02:46.350Z,5.10
2022-12-24T03:05:34.911Z,4.40
2022-12-24T03:08:13.320Z,4.17
2022-12-24T03:10:56.871Z,5.60
2022-12-24T03:13:25.503Z,4.40
2022-12-24T03:15:53.039Z,4.83
2022-12-24T03:18:24.729Z,4.80
2022-12-24T03:21:09.829Z,4.80
2022-12-24T03:23:36.957Z,3.67
2022-12-24T03:26:07.966Z,4.07
2022-12-24T03:28:37.276Z,4.30
2022-12-24T03:31:05.926Z,4.80
2022-12-24T03:33:32.896Z,3.97
2022-12-24T03:35:59.753Z,4.10
2022-12-24T03:38:29.524Z,5.03
2022-12-24T03:41:01.080Z,4.17
2022-12-24T03:43:27.951Z,4.50
2022-12-24T03:46:00.116Z,4.77
2022-12-24T03:48:32.898Z,4.70
2022-12-24T03:51:00.043Z,4.33
2022-12-24T03:53:30.153Z,4.87
2022-12-24T03:55:57.147Z,3.97
2022-12-24T03:58:23.974Z,3.50
2022-12-24T04:00:50.882Z,3.77
2022-12-24T04:03:17.742Z,4.97
2022-12-24T04:05:44.633Z,4.07
2022-12-24T04:08:11.504Z,4.63
2022-12-24T04:10:38.362Z,4.63
2022-12-24T04:13:05.145Z,4.50
2022-12-24T04:15:32.406Z,4.37
2022-12-24T04:17:59.194Z,4.13
2022-12-24T04:20:26.044Z,3.07
2022-12-24T04:22:57.627Z,2.80
2022-12-24T04:25:24.456Z,3.07
2022-12-24T04:27:51.211Z,3.33
2022-12-24T04:30:20.480Z,2.87
2022-12-24T04:32:47.315Z,2.90
2022-12-24T04:35:14.264Z,3.50
2022-12-24T04:37:41.036Z,3.40
2022-12-24T04:40:08.623Z,3.10
2022-12-24T04:42:35.463Z,4.07
2022-12-24T04:45:02.217Z,2.50
2022-12-24T04:47:29.081Z,2.37
2022-12-24T04:49:55.965Z,2.57
2022-12-24T04:52:22.834Z,3.03
2022-12-24T04:54:49.612Z,3.40
2022-12-24T04:57:16.407Z,2.50
2022-12-24T04:59:43.269Z,3.20
2022-12-24T05:02:10.209Z,3.37
2022-12-24T05:04:37.079Z,3.37
2022-12-24T05:07:04.085Z,3.70
2022-12-24T05:09:30.888Z,2.83
2022-12-24T05:11:57.679Z,2.60
2022-12-24T05:14:24.562Z,3.00
2022-12-24T05:16:51.451Z,3.07
2022-12-24T05:19:18.386Z,3.10
2022-12-24T05:22:05.136Z,2.73
2022-12-24T05:24:50.594Z,3.03
2022-12-24T05:27:17.559Z,3.50
2022-12-24T05:29:44.355Z,3.03
2022-12-24T05:32:11.195Z,2.73
2022-12-24T05:34:38.150Z,3.50
2022-12-24T05:37:05.081Z,4.43
2022-12-24T05:39:31.938Z,3.70
2022-12-24T05:41:58.763Z,3.17
2022-12-24T05:44:25.824Z,3.13
2022-12-24T05:46:52.738Z,3.00
2022-12-24T05:49:19.568Z,4.50
2022-12-24T05:51:46.419Z,3.83
2022-12-24T05:54:13.286Z,3.97
2022-12-24T05:56:40.307Z,3.43
2022-12-24T05:59:07.254Z,3.60
2022-12-24T06:01:37.938Z,3.63
2022-12-24T06:04:05.172Z,3.30
2022-12-24T06:06:32.162Z,3.00
2022-12-24T06:09:05.035Z,3.23
2022-12-24T06:11:32.001Z,3.40
2022-12-24T06:13:58.811Z,3.53
2022-12-24T06:16:26.578Z,3.40
2022-12-24T06:18:53.940Z,3.30
2022-12-24T06:21:21.007Z,3.13
2022-12-24T06:23:48.239Z,2.77
2022-12-24T06:26:19.348Z,3.67
2022-12-24T06:28:47.660Z,4.00
2022-12-24T06:31:17.023Z,4.00
2022-12-24T06:33:44.121Z,3.67
2022-12-24T06:36:17.460Z,4.20
2022-12-24T06:38:45.627Z,3.53
2022-12-24T06:41:12.525Z,3.53
2022-12-24T06:43:39.332Z,3.93
2022-12-24T06:46:06.290Z,4.40
2022-12-24T06:48:33.147Z,4.33
2022-12-24T06:51:03.146Z,3.67
2022-12-24T06:53:30.032Z,5.00
2022-12-24T06:56:08.373Z,4.80
2022-12-24T06:58:36.303Z,4.03
2022-12-24T07:01:06.280Z,4.27
2022-12-24T07:03:34.141Z,4.30
2022-12-24T07:06:01.273Z,3.67
2022-12-24T07:08:28.392Z,3.83
2022-12-24T07:10:55.353Z,4.67
2022-12-24T07:13:22.451Z,3.57
2022-12-24T07:15:58.652Z,4.73
2022-12-24T07:18:25.770Z,3.67
2022-12-24T07:20:52.789Z,3.90
2022-12-24T07:23:19.669Z,4.50
2022-12-24T07:25:46.509Z,3.77
2022-12-24T07:28:13.344Z,4.30
2022-12-24T07:30:42.677Z,5.20
2022-12-24T07:33:09.609Z,3.50
2022-12-24T07:35:36.540Z,4.80
2022-12-24T07:38:03.490Z,4.23
2022-12-24T07:40:30.492Z,4.67
2022-12-24T07:42:57.399Z,5.47
2022-12-24T07:45:24.349Z,3.83
2022-12-24T07:47:51.211Z,4.63
2022-12-24T07:50:18.168Z,5.33
2022-12-24T07:52:45.138Z,5.13
2022-12-24T07:55:12.010Z,4.20
2022-12-24T07:57:38.853Z,5.93
2022-12-24T08:00:06.334Z,4.83
2022-12-24T08:02:33.377Z,4.30
2022-12-24T08:05:00.323Z,4.67
2022-12-24T08:07:27.276Z,4.53
2022-12-24T08:09:54.097Z,4.70
2022-12-24T08:12:20.875Z,4.53
2022-12-24T08:14:47.652Z,5.50
2022-12-24T08:17:14.435Z,5.80
2022-12-24T08:19:41.300Z,5.33
2022-12-24T08:22:08.088Z,6.67
2022-12-24T08:24:34.881Z,5.93
2022-12-24T08:27:01.727Z,5.90
2022-12-24T08:29:28.546Z,10.43
2022-12-24T08:31:56.536Z,7.07
2022-12-24T08:34:23.405Z,6.83
2022-12-24T08:36:50.193Z,5.80
2022-12-24T08:39:16.992Z,4.90
2022-12-24T08:41:43.815Z,4.47
2022-12-24T08:44:10.618Z,5.63
2022-12-24T08:46:37.522Z,4.53
2022-12-24T08:49:04.328Z,4.20
2022-12-24T08:51:31.320Z,5.10
2022-12-24T08:53:58.145Z,5.27
2022-12-24T08:56:25.395Z,4.90
2022-12-24T08:58:52.209Z,5.00
2022-12-24T09:01:20.781Z,5.23
2022-12-24T09:03:48.280Z,4.97
2022-12-24T09:06:16.138Z,4.77
2022-12-24T09:08:43.331Z,5.87
2022-12-24T09:11:13.906Z,4.80
2022-12-24T09:13:41.167Z,4.20
2022-12-24T09:16:09.012Z,4.40
2022-12-24T09:18:36.220Z,4.77
2022-12-24T09:21:08.371Z,5.00
2022-12-24T09:23:39.759Z,4.87
2022-12-24T09:26:15.368Z,4.67
2022-12-24T09:28:43.992Z,5.37
2022-12-24T09:31:16.080Z,5.30
2022-12-24T09:33:44.408Z,5.20
2022-12-24T09:36:11.543Z,4.87
2022-12-24T09:38:39.685Z,4.70
2022-12-24T09:41:47.438Z,5.50
2022-12-24T09:44:20.023Z,4.73
2022-12-24T09:46:50.331Z,3.97
2022-12-24T09:49:30.948Z,5.37
2022-12-24T09:52:05.164Z,5.50
2022-12-24T09:54:49.646Z,3.87
2022-12-24T09:57:37.912Z,5.20
2022-12-24T10:00:06.152Z,4.27
2022-12-24T10:02:33.433Z,4.77
2022-12-24T10:05:00.367Z,4.67
2022-12-24T10:07:50.904Z,4.80
2022-12-24T10:10:50.279Z,5.50
2022-12-24T10:13:56.009Z,4.77
2022-12-24T10:16:28.728Z,5.50
2022-12-24T10:19:21.104Z,4.83
2022-12-24T10:22:19.022Z,4.30
2022-12-24T10:24:50.769Z,4.70
2022-12-24T10:27:21.539Z,3.93
2022-12-24T10:29:53.735Z,5.53
2022-12-24T10:32:28.646Z,5.70
2022-12-24T10:34:59.037Z,5.60
2022-12-24T10:37:29.818Z,4.60
2022-12-24T10:39:59.312Z,4.47
2022-12-24T10:42:51.061Z,5.17
2022-12-24T10:45:23.044Z,6.67
2022-12-24T10:47:57.345Z,5.00
2022-12-24T10:50:39.690Z,5.40
2022-12-24T10:53:23.491Z,4.93
2022-12-24T10:55:50.513Z,5.03
2022-12-24T10:58:19.836Z,5.83
2022-12-24T11:00:51.968Z,4.57
2022-12-24T11:03:18.888Z,5.80
2022-12-24T11:05:45.783Z,4.83
2022-12-24T11:08:12.563Z,5.47
2022-12-24T11:10:43.246Z,5.03
2022-12-24T11:13:37.573Z,4.63
2022-12-24T11:16:27.039Z,5.80
2022-12-24T11:18:58.615Z,5.43
2022-12-24T11:21:31.529Z,5.57
2022-12-24T11:24:12.980Z,5.70
2022-12-24T11:26:42.287Z,4.80
2022-12-24T11:29:28.339Z,6.03
2022-12-24T11:32:18.013Z,4.50
2022-12-24T11:34:45.088Z,5.70
2022-12-24T11:37:28.032Z,5.53
2022-12-24T11:39:57.836Z,4.60
2022-12-24T11:42:39.325Z,5.47
2022-12-24T11:45:19.120Z,4.43
2022-12-24T11:47:46.349Z,5.83
2022-12-24T11:50:24.438Z,6.00
2022-12-24T11:53:20.529Z,4.43
2022-12-24T11:55:53.978Z,5.73
2022-12-24T11:58:35.559Z,4.93
2022-12-24T12:01:22.706Z,5.47
2022-12-24T12:03:57.575Z,5.20
2022-12-24T12:06:42.480Z,6.03
2022-12-24T12:09:17.728Z,5.27
2022-12-24T12:11:48.464Z,4.37
2022-12-24T12:14:22.509Z,6.10
2022-12-24T12:17:06.159Z,5.83
2022-12-24T12:20:19.868Z,5.40
2022-12-24T12:23:24.526Z,4.20
2022-12-24T12:25:58.186Z,5.00
2022-12-24T12:28:46.275Z,4.60
2022-12-24T12:31:27.925Z,5.43
2022-12-24T12:34:12.138Z,7.20
2022-12-24T12:37:00.433Z,4.60
2022-12-24T12:39:27.407Z,4.20
2022-12-24T12:42:09.564Z,4.83
2022-12-24T12:44:42.433Z,5.40
2022-12-24T12:47:22.328Z,4.23
2022-12-24T12:50:25.494Z,4.83
2022-12-24T12:53:29.529Z,5.10
2022-12-24T12:56:08.323Z,4.50
2022-12-24T12:58:41.912Z,4.73
2022-12-24T13:01:41.359Z,5.10
2022-12-24T13:04:48.459Z,4.87
2022-12-24T13:07:56.854Z,5.17
2022-12-24T13:10:51.945Z,4.37
2022-12-24T13:13:42.989Z,4.47
2022-12-24T13:16:47.394Z,4.70
2022-12-24T13:19:23.064Z,4.17
2022-12-24T13:21:51.331Z,4.67
2022-12-24T13:24:21.863Z,3.53
2022-12-24T13:27:15.959Z,4.63
2022-12-24T13:29:53.636Z,4.67
2022-12-24T13:32:20.408Z,4.57
2022-12-24T13:34:52.943Z,5.13
2022-12-24T13:37:39.221Z,5.23
2022-12-24T13:40:06.230Z,4.00
2022-12-24T13:43:01.319Z,5.63
2022-12-24T13:45:31.177Z,5.10
2022-12-24T13:48:11.051Z,5.17
2022-12-24T13:50:57.912Z,5.17
2022-12-24T13:53:43.075Z,4.37
2022-12-24T13:56:19.594Z,5.03
2022-12-24T13:58:53.919Z,6.00
2022-12-24T14:01:28.985Z,4.73
2022-12-24T14:04:00.398Z,4.87
2022-12-24T14:06:36.553Z,5.30
2022-12-24T14:09:19.427Z,4.70
2022-12-24T14:12:04.203Z,4.80
2022-12-24T14:14:42.056Z,5.33
2022-12-24T14:17:47.889Z,4.83
2022-12-24T14:20:15.900Z,4.77
2022-12-24T14:22:45.652Z,5.33
2022-12-24T14:25:24.079Z,5.07
2022-12-24T14:28:04.133Z,5.10
2022-12-24T14:30:32.216Z,4.83
2022-12-24T14:32:59.050Z,4.90
2022-12-24T14:35:35.331Z,5.50
2022-12-24T14:38:05.379Z,4.07
2022-12-24T14:40:36.072Z,6.30
2022-12-24T14:43:08.753Z,5.33
2022-12-24T14:45:42.454Z,5.10
2022-12-24T14:48:30.570Z,3.87
2022-12-24T14:51:12.192Z,4.53
2022-12-24T14:53:49.271Z,4.27
2022-12-24T14:56:18.725Z,4.43
2022-12-24T14:58:46.373Z,4.77
2022-12-24T15:01:28.920Z,4.83
2022-12-24T15:04:09.030Z,4.47
2022-12-24T15:06:47.970Z,5.00
2022-12-24T15:09:20.313Z,5.23
2022-12-24T15:11:50.619Z,5.17
2022-12-24T15:14:19.749Z,4.30
2022-12-24T15:16:59.925Z,4.60
2022-12-24T15:19:34.814Z,4.50
2022-12-24T15:22:04.148Z,4.87
2022-12-24T15:24:36.463Z,5.23
2022-12-24T15:27:20.213Z,4.43
2022-12-24T15:29:49.212Z,5.00
2022-12-24T15:32:18.288Z,5.60
2022-12-24T15:34:53.779Z,5.00
2022-12-24T15:37:26.437Z,5.33
2022-12-24T15:39:56.765Z,5.23
2022-12-24T15:42:29.201Z,5.73
2022-12-24T15:45:14.008Z,5.60
2022-12-24T15:47:57.587Z,5.97
2022-12-24T15:50:43.232Z,6.33
2022-12-24T15:53:20.422Z,6.27
2022-12-24T15:56:06.579Z,7.47
2022-12-24T15:58:41.856Z,6.30
2022-12-24T16:01:17.030Z,6.10
2022-12-24T16:03:53.038Z,7.03
2022-12-24T16:06:21.081Z,6.07
2022-12-24T16:08:48.498Z,6.43
2022-12-24T16:11:19.112Z,7.37
2022-12-24T16:14:11.041Z,6.30
2022-12-24T16:16:41.174Z,7.03
2022-12-24T16:19:17.882Z,6.77
2022-12-24T16:21:44.919Z,6.80
2022-12-24T16:24:20.257Z,6.43
2022-12-24T16:26:48.206Z,7.03
2022-12-24T16:29:16.135Z,6.60
2022-12-24T16:31:50.900Z,6.73
2022-12-24T16:34:18.605Z,8.03
2022-12-24T16:36:46.468Z,7.83
2022-12-24T16:39:24.774Z,8.23
2022-12-24T16:42:11.120Z,8.10
2022-12-24T16:44:38.539Z,8.37
2022-12-24T16:47:17.414Z,6.30
2022-12-24T16:49:44.298Z,8.90
2022-12-24T16:52:33.607Z,9.20
2022-12-24T16:55:01.381Z,12.03
2022-12-24T16:57:28.651Z,10.17
2022-12-24T16:59:55.875Z,9.17
2022-12-24T17:02:24.910Z,9.83
2022-12-24T17:04:52.586Z,9.53
2022-12-24T17:07:20.966Z,8.67
2022-12-24T17:09:48.309Z,9.13
2022-12-24T17:12:15.773Z,8.37
2022-12-24T17:14:42.866Z,9.37
2022-12-24T17:17:29.192Z,8.60
2022-12-24T17:19:56.783Z,7.93
2022-12-24T17:22:24.547Z,9.33
2022-12-24T17:24:51.293Z,9.00
2022-12-24T17:27:18.282Z,7.90
2022-12-24T17:29:45.605Z,7.27
2022-12-24T17:32:12.448Z,7.47
2022-12-24T17:34:39.513Z,7.13
2022-12-24T17:37:06.609Z,7.90
2022-12-24T17:39:33.461Z,6.77
2022-12-24T17:42:00.351Z,6.87
2022-12-24T17:44:27.499Z,7.97
2022-12-24T17:46:54.647Z,7.93
2022-12-24T17:49:22.158Z,7.30
2022-12-24T17:51:48.903Z,7.17
2022-12-24T17:54:15.837Z,8.70
2022-12-24T17:56:42.769Z,8.57
2022-12-24T17:59:09.682Z,6.97
2022-12-24T18:01:36.797Z,8.00
2022-12-24T18:04:04.017Z,7.83
2022-12-24T18:06:31.000Z,8.23
2022-12-24T18:08:58.254Z,9.50
2022-12-24T18:11:32.708Z,7.43
2022-12-24T18:14:01.297Z,9.07
2022-12-24T18:16:39.888Z,8.90
2022-12-24T18:19:08.413Z,8.60
2022-12-24T18:21:35.506Z,8.00
2022-12-24T18:24:03.131Z,8.93
2022-12-24T18:26:30.769Z,9.10
2022-12-24T18:29:04.587Z,8.70
2022-12-24T18:31:33.554Z,8.47
2022-12-24T18:34:02.374Z,8.37
2022-12-24T18:36:29.447Z,8.97
2022-12-24T18:38:57.515Z,8.97
2022-12-24T18:41:27.513Z,7.77
2022-12-24T18:43:57.831Z,8.10
2022-12-24T18:46:31.320Z,6.77
2022-12-24T18:48:59.721Z,8.90
2022-12-24T18:51:35.893Z,8.97
2022-12-24T18:54:05.807Z,7.93
2022-12-24T18:56:33.091Z,7.90
2022-12-24T18:59:03.215Z,9.27
2022-12-24T19:01:32.726Z,7.47
2022-12-24T19:03:59.919Z,7.80
2022-12-24T19:06:27.726Z,8.23
2022-12-24T19:08:57.752Z,7.87
2022-12-24T19:11:26.895Z,8.77
2022-12-24T19:13:54.647Z,8.33
2022-12-24T19:16:22.181Z,8.93
2022-12-24T19:18:50.020Z,8.70
2022-12-24T19:21:20.423Z,7.80
2022-12-24T19:23:47.766Z,10.23
2022-12-24T19:26:16.131Z,8.90
2022-12-24T19:28:44.743Z,8.77
2022-12-24T19:31:20.534Z,8.63
2022-12-24T19:33:59.559Z,8.70
2022-12-24T19:36:28.989Z,9.60
2022-12-24T19:38:59.680Z,9.50
2022-12-24T19:41:28.913Z,9.87
2022-12-24T19:43:58.667Z,9.73
2022-12-24T19:46:34.249Z,9.10
2022-12-24T19:49:05.223Z,9.47
2022-12-24T19:51:33.183Z,8.93
2022-12-24T19:54:00.947Z,9.00
2022-12-24T19:56:32.122Z,8.77
2022-12-24T19:59:00.248Z,9.93
2022-12-24T20:01:29.963Z,8.80
2022-12-24T20:03:59.903Z,10.33
2022-12-24T20:06:30.525Z,9.03
2022-12-24T20:09:08.304Z,9.90
2022-12-24T20:11:35.770Z,8.43
2022-12-24T20:14:05.677Z,10.07
2022-12-24T20:16:33.849Z,8.83
2022-12-24T20:19:03.619Z,9.53
2022-12-24T20:21:31.462Z,10.27
2022-12-24T20:23:58.514Z,10.57
2022-12-24T20:26:28.917Z,8.90
2022-12-24T20:28:56.090Z,10.27
2022-12-24T20:31:29.772Z,10.00
2022-12-24T20:33:58.307Z,11.90
2022-12-24T20:36:26.425Z,9.73
2022-12-24T20:38:59.921Z,10.93
2022-12-24T20:41:29.119Z,10.93
2022-12-24T20:43:58.664Z,9.90
2022-12-24T20:46:26.503Z,10.00
2022-12-24T20:48:53.597Z,10.10
2022-12-24T20:51:24.905Z,10.53
2022-12-24T20:53:53.801Z,9.70
2022-12-24T20:56:20.925Z,10.93
2022-12-24T20:58:47.891Z,10.83
2022-12-24T21:01:20.897Z,9.50
2022-12-24T21:03:48.160Z,11.27
2022-12-24T21:06:17.935Z,10.67
2022-12-24T21:08:46.521Z,10.17
2022-12-24T21:11:31.917Z,11.93
2022-12-24T21:13:58.839Z,11.03
2022-12-24T21:16:27.453Z,12.30
2022-12-24T21:18:54.294Z,11.57
2022-12-24T21:21:21.214Z,11.57
2022-12-24T21:23:48.109Z,13.13
2022-12-24T21:26:14.957Z,10.40
2022-12-24T21:28:43.850Z,12.17
2022-12-24T21:31:12.535Z,11.10
2022-12-24T21:33:40.793Z,11.80
2022-12-24T21:36:08.429Z,11.57
2022-12-24T21:38:35.538Z,12.27
2022-12-24T21:41:05.518Z,11.53
2022-12-24T21:43:34.225Z,12.40
2022-12-24T21:46:01.724Z,11.00
2022-12-24T21:48:46.998Z,11.93
2022-12-24T21:51:13.793Z,11.50
2022-12-24T21:54:06.822Z,11.07
2022-12-24T21:56:53.886Z,10.87
2022-12-24T21:59:26.336Z,10.37
2022-12-24T22:01:54.460Z,10.50
2022-12-24T22:04:21.559Z,10.73
2022-12-24T22:07:06.841Z,10.40
2022-12-24T22:09:52.210Z,10.43
2022-12-24T22:12:20.009Z,9.50
2022-12-24T22:14:46.958Z,10.43
2022-12-24T22:17:15.312Z,10.20
2022-12-24T22:19:45.064Z,8.97
2022-12-24T22:22:11.914Z,9.67
2022-12-24T22:24:38.926Z,8.57
2022-12-24T22:27:05.725Z,13.80
2022-12-24T22:29:33.340Z,10.60
2022-12-24T22:32:00.193Z,9.53
2022-12-24T22:34:27.807Z,9.37
2022-12-24T22:36:54.749Z,8.53
2022-12-24T22:39:21.583Z,8.97
2022-12-24T22:41:48.419Z,8.43
2022-12-24T22:44:16.147Z,9.20
2022-12-24T22:46:44.674Z,8.10
2022-12-24T22:49:12.021Z,8.23
2022-12-24T22:51:39.101Z,8.40
2022-12-24T22:54:05.915Z,8.13
2022-12-24T22:56:38.843Z,8.83
2022-12-24T22:59:09.174Z,10.50
2022-12-24T23:01:39.320Z,8.63
2022-12-24T23:04:07.508Z,9.40
2022-12-24T23:06:34.644Z,8.80
2022-12-24T23:09:02.888Z,8.80
2022-12-24T23:11:29.831Z,9.07
2022-12-24T23:14:15.197Z,8.27
2022-12-24T23:16:42.444Z,9.23
2022-12-24T23:19:09.738Z,8.57
2022-12-24T23:21:37.078Z,7.30
2022-12-24T23:24:04.376Z,7.80
2022-12-24T23:26:31.304Z,8.17
2022-12-24T23:28:58.567Z,7.93
2022-12-24T23:31:26.165Z,7.53
2022-12-24T23:33:53.584Z,7.70
2022-12-24T23:36:20.587Z,8.23
2022-12-24T23:38:48.001Z,8.67
2022-12-24T23:41:17.032Z,7.20
2022-12-24T23:43:43.952Z,7.07
2022-12-24T23:46:16.566Z,9.43
2022-12-24T23:48:43.694Z,8.40
2022-12-24T23:51:13.983Z,18.77
2022-12-24T23:53:41.072Z,8.10
2022-12-24T23:56:11.098Z,8.50
2022-12-24T23:58:39.295Z,6.17
